Time;durP1;ratioP1;P1;durP2;ratioP2;P2;SDS_P1;SDS_P2;PMS_P1;PMS_P2;Temp;Humidity;BMP_temperature;BMP_pressure;BME280_temperature;BME280_humidity;BME280_pressure;Samples;Min_cycle;Max_cycle;Signal;HPM_P1;HPM_P2
2024/04/14 00:01:34;;;;;;;19.40;11.60;;;;;;;16.27;62.17;99400.07;232462;203;153259;-56
2024/04/14 00:06:37;;;;;;;15.50;11.20;;;;;;;16.15;62.53;99397.08;232485;206;139859;-55
2024/04/14 00:11:40;;;;;;;19.30;11.20;;;;;;;16.06;62.86;99392.28;232405;207;137545;-56
2024/04/14 00:16:43;;;;;;;16.20;10.50;;;;;;;15.93;62.95;99387.75;232611;203;151814;-56
2024/04/14 00:21:46;;;;;;;21.80;11.20;;;;;;;15.78;63.17;99385.68;232372;207;136943;-56
2024/04/14 00:26:49;;;;;;;18.10;11.20;;;;;;;15.69;63.29;99384.80;232527;202;137833;-56
2024/04/14 00:31:54;;;;;;;17.70;10.50;;;;;;;15.59;63.56;99375.83;232383;206;151241;-56
2024/04/14 00:36:57;;;;;;;18.60;10.60;;;;;;;15.50;63.94;99367.09;232388;206;137140;-57
2024/04/14 00:42:00;;;;;;;16.40;10.60;;;;;;;15.39;64.10;99365.25;232329;203;137115;-58
2024/04/14 00:47:05;;;;;;;15.30;9.80;;;;;;;15.33;64.32;99364.58;232465;199;151847;-55
2024/04/14 00:52:09;;;;;;;20.50;10.60;;;;;;;15.32;64.32;99353.78;232567;203;137861;-55
2024/04/14 00:57:14;;;;;;;17.90;10.90;;;;;;;15.31;64.27;99343.29;232425;203;138667;-55
2024/04/14 01:02:17;;;;;;;17.40;11.00;;;;;;;15.30;64.10;99334.62;232387;203;152400;-55
2024/04/14 01:07:20;;;;;;;27.80;11.70;;;;;;;15.20;64.26;99322.77;232456;203;136920;-59
2024/04/14 01:12:23;;;;;;;21.90;10.90;;;;;;;15.11;64.51;99312.48;232328;204;137053;-58
2024/04/14 01:17:26;;;;;;;19.40;11.80;;;;;;;15.06;64.75;99309.14;232378;204;150233;-58
2024/04/14 01:22:29;;;;;;;19.40;11.40;;;;;;;15.05;64.84;99295.77;232520;203;138446;-56
2024/04/14 01:27:35;;;;;;;17.00;10.60;;;;;;;14.89;64.99;99294.83;232456;203;140680;-58
2024/04/14 01:32:38;;;;;;;19.20;11.00;;;;;;;14.82;65.20;99304.71;232336;204;152435;-56
2024/04/14 01:37:41;;;;;;;18.00;12.00;;;;;;;14.75;65.51;99308.08;232457;199;137566;-55
2024/04/14 01:42:44;;;;;;;19.10;11.40;;;;;;;14.67;65.93;99306.38;232299;201;137170;-57
2024/04/14 01:47:49;;;;;;;17.00;11.40;;;;;;;14.59;66.12;99310.69;232436;203;151977;-56
2024/04/14 01:52:52;;;;;;;15.60;11.30;;;;;;;14.54;66.35;99310.89;232570;203;140416;-56
2024/04/14 01:57:57;;;;;;;17.70;11.90;;;;;;;14.52;66.58;99305.71;232393;203;138478;-56
2024/04/14 02:03:00;;;;;;;19.80;12.20;;;;;;;14.51;66.73;99296.27;232438;202;151629;-56
2024/04/14 02:08:04;;;;;;;19.00;12.40;;;;;;;14.52;66.71;99294.77;232520;203;137998;-56
2024/04/14 02:13:07;;;;;;;20.70;12.50;;;;;;;14.54;66.77;99288.08;232468;204;137740;-55
2024/04/14 02:18:10;;;;;;;21.80;13.10;;;;;;;14.54;66.70;99283.39;232560;206;151205;-57
2024/04/14 02:23:13;;;;;;;18.80;12.70;;;;;;;14.51;66.81;99275.80;232353;207;138479;-56
2024/04/14 02:28:16;;;;;;;16.40;12.40;;;;;;;14.45;66.95;99266.71;232583;204;137989;-57
2024/04/14 02:33:19;;;;;;;21.90;13.40;;;;;;;14.41;67.14;99265.42;232447;207;151138;-55
2024/04/14 02:38:22;;;;;;;18.60;13.10;;;;;;;14.35;67.33;99256.36;232453;206;136922;-57
2024/04/14 02:43:26;;;;;;;21.30;13.30;;;;;;;14.31;67.61;99251.89;232461;206;137964;-57
2024/04/14 02:48:29;;;;;;;18.10;12.50;;;;;;;14.27;67.82;99248.61;232324;207;151970;-57
2024/04/14 02:53:32;;;;;;;19.70;12.30;;;;;;;14.23;68.06;99238.70;232397;203;137548;-58
2024/04/14 02:58:35;;;;;;;19.30;11.50;;;;;;;14.22;68.21;99236.64;232594;207;138270;-55
2024/04/14 03:03:38;;;;;;;24.60;12.90;;;;;;;14.26;68.31;99241.16;232431;203;151416;-57
2024/04/14 03:08:41;;;;;;;18.80;13.20;;;;;;;14.31;68.33;99237.92;232468;206;138075;-56
2024/04/14 03:13:44;;;;;;;20.80;12.90;;;;;;;14.33;68.23;99230.63;232406;206;137053;-57
2024/04/14 03:18:47;;;;;;;20.30;12.20;;;;;;;14.33;68.23;99226.91;232482;207;151435;-56
2024/04/14 03:23:51;;;;;;;24.40;14.70;;;;;;;14.29;68.16;99219.70;232474;207;137955;-58
2024/04/14 03:28:54;;;;;;;21.30;13.00;;;;;;;14.24;68.12;99219.37;232634;207;137432;-58
2024/04/14 03:33:57;;;;;;;20.20;13.60;;;;;;;14.15;68.06;99208.63;232346;204;151559;-56
2024/04/14 03:39:01;;;;;;;22.10;13.20;;;;;;;14.06;68.10;99198.34;232254;207;137235;-55
2024/04/14 03:44:04;;;;;;;19.50;12.70;;;;;;;14.00;68.08;99193.46;232319;207;138011;-55
2024/04/14 03:49:07;;;;;;;17.80;12.20;;;;;;;13.93;68.16;99193.11;232479;206;152325;-57
2024/04/14 03:54:10;;;;;;;19.80;11.50;;;;;;;13.87;68.34;99194.08;232295;203;137819;-57
2024/04/14 03:59:13;;;;;;;17.50;11.60;;;;;;;13.82;68.47;99190.69;232372;203;138843;-59
2024/04/14 04:04:16;;;;;;;20.60;11.40;;;;;;;13.87;69.25;99186.44;232628;203;151477;-57
2024/04/14 04:09:19;;;;;;;132.10;95.00;;;;;;;14.37;69.51;99176.06;232376;203;138097;-62
2024/04/14 04:14:22;;;;;;;42.80;29.50;;;;;;;14.53;67.92;99172.20;232436;203;141690;-52
2024/04/14 04:19:25;;;;;;;27.40;15.70;;;;;;;15.02;68.89;99158.28;232338;206;151597;-54
2024/04/14 04:24:29;;;;;;;178.50;136.60;;;;;;;15.72;66.29;99150.17;232426;203;138174;-52
2024/04/14 04:29:33;;;;;;;27.90;18.90;;;;;;;15.97;64.49;99144.94;232485;203;139087;-48
2024/04/14 04:34:35;;;;;;;21.50;13.30;;;;;;;16.00;63.71;99137.55;232429;207;151393;-50
2024/04/14 04:39:38;;;;;;;18.30;11.80;;;;;;;16.04;63.40;99128.77;232446;204;136918;-49
2024/04/14 04:44:42;;;;;;;96.70;75.40;;;;;;;16.13;63.09;99130.48;232390;203;138401;-52
2024/04/14 04:49:45;;;;;;;26.90;17.20;;;;;;;16.27;62.64;99123.61;232403;203;151118;-52
2024/04/14 04:54:48;;;;;;;28.70;17.80;;;;;;;16.39;62.29;99118.48;232333;203;137972;-51
2024/04/14 04:59:51;;;;;;;20.40;14.30;;;;;;;16.52;62.16;99109.98;232465;204;139259;-52
2024/04/14 05:04:53;;;;;;;20.20;12.80;;;;;;;16.64;62.08;99098.77;232578;206;151185;-51
2024/04/14 05:09:56;;;;;;;22.00;11.90;;;;;;;16.78;61.87;99095.81;232311;204;138452;-51
2024/04/14 05:15:04;;;;;;;20.00;12.20;;;;;;;16.89;61.73;99100.78;232339;204;138358;-49
2024/04/14 05:20:07;;;;;;;16.50;11.40;;;;;;;16.99;61.67;99089.37;232398;204;151113;-51
2024/04/14 05:25:10;;;;;;;20.10;12.70;;;;;;;16.99;61.42;99084.49;232463;207;137637;-57
2024/04/14 05:30:13;;;;;;;204.50;170.70;;;;;;;16.65;61.44;99084.41;232457;204;137927;-50
2024/04/14 05:35:16;;;;;;;36.40;27.20;;;;;;;16.50;62.61;99089.04;232367;206;151825;-53
2024/04/14 05:40:19;;;;;;;51.70;38.50;;;;;;;16.81;62.16;99077.11;232600;206;137460;-57
2024/04/14 05:45:23;;;;;;;43.50;33.90;;;;;;;16.62;61.96;99076.61;232408;207;138120;-57
2024/04/14 05:50:26;;;;;;;19.70;11.60;;;;;;;16.52;61.88;99078.16;232363;207;152566;-57
2024/04/14 05:55:29;;;;;;;14.20;10.60;;;;;;;16.49;61.99;99066.77;232313;203;137763;-56
2024/04/14 06:00:35;;;;;;;14.00;10.40;;;;;;;16.50;61.75;99062.59;232475;206;138906;-56
2024/04/14 06:05:38;;;;;;;13.50;9.30;;;;;;;16.60;61.55;99061.38;232409;204;151273;-55
2024/04/14 06:10:41;;;;;;;11.40;9.20;;;;;;;16.73;61.19;99052.55;232553;207;137997;-57
2024/04/14 06:15:44;;;;;;;21.10;13.80;;;;;;;16.84;61.11;99045.13;232341;203;137315;-53
2024/04/14 06:20:51;;;;;;;30.30;19.60;;;;;;;17.05;61.24;99043.29;232385;203;151356;-53
2024/04/14 06:25:55;;;;;;;19.90;10.20;;;;;;;17.34;61.21;99039.56;232332;206;136995;-52
2024/04/14 06:30:57;;;;;;;16.60;9.30;;;;;;;17.52;60.20;99042.47;232430;203;138968;-48
2024/04/14 06:36:00;;;;;;;16.20;7.90;;;;;;;17.64;59.66;99041.70;232340;203;151525;-50
2024/04/14 06:41:04;;;;;;;14.00;7.40;;;;;;;17.77;59.52;99038.91;232327;203;137165;-54
2024/04/14 06:46:07;;;;;;;22.30;15.70;;;;;;;17.98;58.70;99042.77;232560;206;137535;-59
2024/04/14 06:51:10;;;;;;;11.20;7.10;;;;;;;17.93;57.99;99041.39;232440;203;151384;-59
2024/04/14 06:56:13;;;;;;;17.00;11.90;;;;;;;17.91;57.76;99039.83;232360;203;137067;-60
2024/04/14 07:01:16;;;;;;;13.40;8.70;;;;;;;17.91;57.98;99042.71;232522;204;137732;-60
2024/04/14 07:06:19;;;;;;;11.20;7.10;;;;;;;17.98;58.36;99044.38;232461;206;151489;-60
2024/04/14 07:11:22;;;;;;;10.20;6.10;;;;;;;18.03;58.07;99041.21;232351;203;137628;-58
2024/04/14 07:16:25;;;;;;;11.20;6.20;;;;;;;18.13;58.06;99037.94;232526;200;137442;-60
2024/04/14 07:21:28;;;;;;;11.00;6.10;;;;;;;18.25;58.15;99037.55;232468;206;151280;-59
2024/04/14 07:26:32;;;;;;;7.60;5.20;;;;;;;18.34;57.82;99030.73;232370;203;138138;-59
2024/04/14 07:31:35;;;;;;;11.50;6.00;;;;;;;18.48;57.80;99033.02;232408;206;137364;-60
2024/04/14 07:36:38;;;;;;;7.60;5.30;;;;;;;18.62;57.75;99032.00;232353;207;153760;-58
2024/04/14 07:41:42;;;;;;;58.00;46.10;;;;;;;18.80;57.48;99025.88;232395;203;141505;-59
2024/04/14 07:46:45;;;;;;;7.30;4.80;;;;;;;18.97;57.11;99024.81;232520;203;137194;-60
2024/04/14 07:51:48;;;;;;;8.30;4.20;;;;;;;19.11;56.04;99015.27;232410;203;156724;-58
2024/04/14 07:56:51;;;;;;;7.50;3.90;;;;;;;19.25;55.35;99009.44;232321;207;138468;-57
2024/04/14 08:01:54;;;;;;;10.10;4.20;;;;;;;19.42;54.45;99011.65;232449;204;139501;-60
2024/04/14 08:06:57;;;;;;;7.50;3.20;;;;;;;19.62;53.93;99013.09;232370;207;151957;-58
2024/04/14 08:12:00;;;;;;;10.70;4.80;;;;;;;19.81;52.89;99013.20;232434;203;137882;-59
2024/04/14 08:17:03;;;;;;;5.70;3.20;;;;;;;20.00;52.08;99012.98;232525;200;139006;-62
2024/04/14 08:22:06;;;;;;;11.10;3.40;;;;;;;20.17;51.95;99011.39;232398;201;152929;-52
2024/04/14 08:27:09;;;;;;;12.10;3.00;;;;;;;20.32;50.78;99008.01;232451;203;140706;-57
2024/04/14 08:32:12;;;;;;;4.30;2.70;;;;;;;20.48;50.04;99011.41;232438;203;137132;-57
2024/04/14 08:37:15;;;;;;;10.70;2.50;;;;;;;20.63;49.83;99001.64;232323;204;152047;-57
2024/04/14 08:42:24;;;;;;;3.90;2.50;;;;;;;20.77;49.45;99003.34;232284;207;141236;-57
2024/04/14 08:47:28;;;;;;;4.90;2.70;;;;;;;20.91;48.93;98992.92;232483;200;137721;-57
2024/04/14 08:52:33;;;;;;;24.90;19.50;;;;;;;21.06;48.14;98982.50;232436;206;152618;-56
2024/04/14 08:57:37;;;;;;;9.30;3.10;;;;;;;21.20;47.89;98985.44;232410;203;138965;-55
2024/04/14 09:02:41;;;;;;;6.10;2.60;;;;;;;21.34;46.77;98969.92;232409;207;140234;-53
2024/04/14 09:07:44;;;;;;;9.90;2.20;;;;;;;21.52;46.26;98962.39;232310;207;151840;-54
2024/04/14 09:12:47;;;;;;;9.30;3.00;;;;;;;21.67;46.23;98962.69;232432;203;137665;-50
2024/04/14 09:17:51;;;;;;;9.60;2.30;;;;;;;21.89;45.98;98960.98;232449;203;137811;-51
2024/04/14 09:22:56;;;;;;;6.30;2.10;;;;;;;22.13;45.22;98953.36;232575;207;151301;-50
2024/04/14 09:28:08;;;;;;;6.50;2.10;;;;;;;22.33;44.47;98951.60;232427;204;139035;-47
2024/04/14 09:33:12;;;;;;;3.30;1.90;;;;;;;22.50;42.83;98953.48;232490;203;138274;-50
2024/04/14 09:38:17;;;;;;;7.80;2.10;;;;;;;22.62;42.82;98948.89;232389;207;152121;-49
2024/04/14 09:43:22;;;;;;;6.70;1.90;;;;;;;22.77;42.31;98956.59;232296;204;138461;-49
2024/04/14 09:48:26;;;;;;;8.00;1.00;;;;;;;22.87;41.93;98947.26;232349;204;137800;-50
2024/04/14 09:53:31;;;;;;;5.40;1.80;;;;;;;22.94;41.71;98944.52;232384;203;151309;-51
2024/04/14 09:58:34;;;;;;;3.90;1.80;;;;;;;23.03;41.08;98945.36;232571;207;139672;-49
2024/04/14 10:03:39;;;;;;;5.00;2.10;;;;;;;23.14;41.39;98935.48;232492;203;138316;-49
2024/04/14 10:08:43;;;;;;;9.90;1.90;;;;;;;23.32;41.02;98936.85;232226;204;152466;-47
2024/04/14 10:13:50;;;;;;;4.60;1.80;;;;;;;23.51;40.12;98939.02;232273;207;137853;-50
2024/04/14 10:18:53;;;;;;;7.30;2.10;;;;;;;23.64;40.01;98930.24;232386;207;137054;-50
2024/04/14 10:23:57;;;;;;;5.70;1.90;;;;;;;23.83;40.11;98924.05;232283;199;151253;-51
2024/04/14 10:29:07;;;;;;;6.00;2.20;;;;;;;24.02;40.31;98915.20;232500;207;138779;-53
2024/04/14 10:34:21;;;;;;;6.20;1.50;;;;;;;24.18;39.29;98923.20;232565;202;137192;-51
2024/04/14 10:39:24;;;;;;;5.20;2.10;;;;;;;24.27;38.59;98912.92;232370;207;151737;-53
2024/04/14 10:44:28;;;;;;;5.40;1.70;;;;;;;24.39;38.62;98907.87;232308;200;137055;-51
2024/04/14 10:49:32;;;;;;;8.00;2.80;;;;;;;24.50;38.47;98902.45;232361;207;139515;-53
2024/04/14 10:54:35;;;;;;;7.30;2.30;;;;;;;24.65;38.16;98906.14;232437;199;152085;-52
2024/04/14 10:59:39;;;;;;;10.40;1.80;;;;;;;24.68;37.95;98899.22;232440;203;140236;-52
2024/04/14 11:04:42;;;;;;;5.90;1.90;;;;;;;24.73;37.85;98894.98;232535;203;136925;-53
2024/04/14 11:09:46;;;;;;;22.50;13.30;;;;;;;24.67;37.62;98893.22;232386;203;153356;-58
2024/04/14 11:14:49;;;;;;;7.70;2.10;;;;;;;24.58;37.82;98904.27;232330;207;137773;-55
2024/04/14 11:19:52;;;;;;;5.70;2.70;;;;;;;24.52;38.53;98893.77;232379;204;139114;-53
2024/04/14 11:24:58;;;;;;;4.20;2.20;;;;;;;24.51;38.52;98895.98;232410;203;152072;-57
2024/04/14 11:30:01;;;;;;;11.50;2.00;;;;;;;24.54;38.99;98899.12;232317;203;138091;-53
2024/04/14 11:35:09;;;;;;;7.20;2.10;;;;;;;24.58;39.14;98895.98;232519;203;139385;-53
2024/04/14 11:40:15;;;;;;;2.90;1.70;;;;;;;24.56;39.06;98893.58;232482;203;152091;-51
2024/04/14 11:45:18;;;;;;;7.50;2.40;;;;;;;24.67;39.53;98886.98;232395;203;140433;-52
2024/04/14 11:50:21;;;;;;;7.40;2.30;;;;;;;24.74;39.53;98885.19;232455;203;137576;-55
2024/04/14 11:55:24;;;;;;;7.00;4.00;;;;;;;24.72;39.28;98885.41;232374;207;151960;-57
2024/04/14 12:00:27;;;;;;;6.10;2.40;;;;;;;24.82;39.04;98891.73;232540;206;137354;-53
2024/04/14 12:05:30;;;;;;;7.60;2.30;;;;;;;24.86;39.05;98888.56;232508;206;137900;-53
2024/04/14 12:10:33;;;;;;;6.70;2.30;;;;;;;24.91;38.85;98889.52;232600;207;151186;-53
2024/04/14 12:15:36;;;;;;;6.00;2.10;;;;;;;24.90;39.06;98891.42;232444;203;137826;-52
2024/04/14 12:20:39;;;;;;;9.80;3.50;;;;;;;24.85;38.61;98887.49;232480;207;136783;-51
2024/04/14 12:25:42;;;;;;;5.80;2.20;;;;;;;24.81;38.18;98887.31;232494;202;151537;-48
2024/04/14 12:30:45;;;;;;;5.00;2.00;;;;;;;24.72;38.27;98881.31;232451;199;137942;-50
2024/04/14 12:35:54;;;;;;;9.80;2.30;;;;;;;24.70;38.34;98871.36;232480;202;138067;-51
2024/04/14 12:40:56;;;;;;;6.00;2.40;;;;;;;24.70;38.98;98869.42;232576;207;151709;-49
2024/04/14 15:08:58;;;;;;;9.80;7.90;;;;;;;21.42;45.85;98764.69;230293;210;707537;-62
2024/04/14 15:14:01;;;;;;;6.80;2.20;;;;;;;21.42;45.87;98750.85;231656;204;136356;-44
2024/04/14 15:19:04;;;;;;;5.90;2.30;;;;;;;21.53;45.68;98755.44;231648;203;137027;-62
2024/04/14 15:24:07;;;;;;;8.70;1.90;;;;;;;21.66;45.86;98802.34;231679;205;148555;-62
2024/04/14 15:29:10;;;;;;;8.10;2.20;;;;;;;21.67;47.43;98838.29;232429;205;137668;-64
2024/04/14 15:34:13;;;;;;;9.70;2.10;;;;;;;21.58;48.86;98844.77;232220;208;136608;-63
2024/04/14 15:39:16;;;;;;;7.20;2.10;;;;;;;21.49;49.90;98854.16;232126;205;148409;-63
2024/04/14 15:44:19;;;;;;;48.80;40.50;;;;;;;21.43;50.38;98853.63;232224;208;136083;-62
2024/04/14 15:49:29;;;;;;;21.20;13.90;;;;;;;21.44;51.12;98848.86;232238;205;137347;-59
2024/04/14 15:54:33;;;;;;;5.10;2.40;;;;;;;21.42;51.20;98865.48;232302;204;147690;-61
2024/04/14 15:59:36;;;;;;;5.30;2.40;;;;;;;21.35;50.94;98857.08;232330;201;137328;-61
2024/04/14 16:04:39;;;;;;;6.40;2.30;;;;;;;21.33;51.12;98856.89;232294;204;137198;-62
2024/04/14 16:09:42;;;;;;;5.30;2.00;;;;;;;21.33;51.25;98847.52;232166;208;150092;-61
2024/04/14 16:14:48;;;;;;;5.70;2.50;;;;;;;21.36;51.01;98828.18;232144;204;138161;-59
2024/04/14 16:19:51;;;;;;;5.00;2.40;;;;;;;21.33;51.28;98830.15;232176;204;136299;-59
2024/04/14 16:24:54;;;;;;;10.40;6.00;;;;;;;21.36;51.01;98823.88;232113;205;149308;-58
2024/04/14 16:29:57;;;;;;;6.90;2.60;;;;;;;21.38;50.79;98819.85;232373;206;137270;-61
2024/04/14 16:35:01;;;;;;;4.90;2.00;;;;;;;21.37;50.70;98821.62;232180;205;136845;-62
2024/04/14 16:40:04;;;;;;;8.10;2.30;;;;;;;21.38;50.55;98823.41;232357;202;149993;-62
2024/04/14 16:45:07;;;;;;;5.90;2.20;;;;;;;21.42;50.55;98822.80;232383;199;137440;-62
2024/04/14 16:50:10;;;;;;;9.70;2.40;;;;;;;21.45;50.61;98829.05;232452;202;136782;-61
2024/04/14 16:55:13;;;;;;;6.00;2.10;;;;;;;21.46;50.31;98827.26;232438;203;149672;-61
2024/04/14 17:00:19;;;;;;;5.30;2.20;;;;;;;21.45;50.08;98822.29;232342;206;136932;-62
2024/04/14 17:05:22;;;;;;;59.10;45.10;;;;;;;21.43;50.06;98817.35;232595;206;136485;-43
2024/04/14 17:10:26;;;;;;;8.20;3.30;;;;;;;21.46;50.01;98807.94;232347;205;149615;-61
2024/04/14 17:15:29;;;;;;;9.20;2.50;;;;;;;21.42;49.76;98814.88;232340;203;136939;-62
2024/04/14 17:20:33;;;;;;;7.70;2.60;;;;;;;21.36;49.71;98830.75;232406;203;138818;-63
2024/04/14 17:25:36;;;;;;;6.10;2.50;;;;;;;21.32;49.71;98839.77;232400;203;149736;-61
2024/04/14 17:30:39;;;;;;;9.50;3.00;;;;;;;21.29;49.73;98849.33;232360;206;139136;-62
2024/04/14 17:35:43;;;;;;;8.70;3.20;;;;;;;21.24;50.15;98849.27;232623;199;137399;-60
2024/04/14 17:40:46;;;;;;;7.00;3.10;;;;;;;21.16;50.56;98845.56;232452;202;150122;-62
2024/04/14 17:45:49;;;;;;;7.20;3.30;;;;;;;21.08;51.20;98845.55;232448;206;136857;-61
2024/04/14 17:50:52;;;;;;;23.00;9.50;;;;;;;21.01;51.81;98856.52;232383;206;136779;-61
2024/04/14 17:55:55;;;;;;;11.30;3.90;;;;;;;20.95;52.05;98859.73;232380;204;149910;-61
2024/04/14 18:00:58;;;;;;;9.00;3.70;;;;;;;20.90;52.57;98879.40;232295;206;138416;-61
2024/04/14 18:06:01;;;;;;;9.30;4.10;;;;;;;20.81;52.86;98880.55;232542;205;137392;-62
2024/04/14 18:11:05;;;;;;;12.40;3.90;;;;;;;20.71;53.20;98880.15;232520;203;149582;-62
2024/04/14 18:16:08;;;;;;;10.90;4.20;;;;;;;20.62;53.65;98875.92;232412;203;137878;-60
2024/04/14 18:21:11;;;;;;;6.80;3.70;;;;;;;20.53;54.05;98869.64;232420;198;138253;-60
2024/04/14 18:26:14;;;;;;;7.70;3.60;;;;;;;20.45;54.36;98880.33;232489;206;149347;-60
2024/04/14 18:31:17;;;;;;;7.80;3.50;;;;;;;20.37;54.41;98873.45;232402;206;138025;-63
2024/04/14 18:36:21;;;;;;;6.20;3.30;;;;;;;20.32;54.44;98881.55;232383;198;137434;-61
2024/04/14 18:41:24;;;;;;;64.50;56.80;;;;;;;20.23;54.68;98888.05;232590;206;151223;-62
2024/04/14 18:46:27;;;;;;;8.80;4.30;;;;;;;20.22;54.51;98890.91;232399;202;137166;-61
2024/04/14 18:51:30;;;;;;;6.20;3.20;;;;;;;20.15;54.57;98951.43;232428;203;136563;-61
2024/04/14 18:56:33;;;;;;;5.50;3.10;;;;;;;20.03;54.74;98927.11;232464;202;149239;-61
2024/04/14 19:01:35;;;;;;;7.40;3.10;;;;;;;19.90;54.94;98916.73;232410;203;138136;-61
2024/04/14 19:06:39;;;;;;;7.00;3.10;;;;;;;19.81;55.10;98924.84;232569;203;137672;-62
2024/04/14 19:11:42;;;;;;;4.80;2.20;;;;;;;19.66;54.62;98925.42;232694;206;149462;-60
2024/04/14 19:16:45;;;;;;;8.70;4.80;;;;;;;19.54;53.94;98922.17;232428;202;136709;-61
2024/04/14 19:21:48;;;;;;;4.80;2.30;;;;;;;19.37;53.66;98923.17;232465;206;136572;-61
2024/04/14 19:26:51;;;;;;;5.80;2.40;;;;;;;19.26;53.66;98925.30;232509;202;149582;-60
2024/04/14 19:31:54;;;;;;;3.60;2.30;;;;;;;19.16;53.89;98925.46;232495;198;138587;-60
2024/04/14 19:36:57;;;;;;;8.00;2.50;;;;;;;19.06;53.99;98917.48;232492;203;137126;-60
2024/04/14 19:42:00;;;;;;;6.20;2.80;;;;;;;18.99;54.22;98919.08;232597;200;149675;-59
2024/04/14 19:47:03;;;;;;;5.40;2.50;;;;;;;18.95;54.56;98908.65;232384;203;136685;-60
2024/04/14 19:52:06;;;;;;;6.50;2.40;;;;;;;18.89;54.55;98903.49;232450;206;136479;-60
2024/04/14 19:57:09;;;;;;;8.60;2.70;;;;;;;18.87;54.47;98919.98;232453;203;150831;-60
2024/04/14 20:02:12;;;;;;;7.50;2.80;;;;;;;18.84;54.54;98919.64;232488;203;137411;-60
2024/04/14 20:07:17;;;;;;;10.30;3.80;;;;;;;18.84;54.58;98916.70;232480;203;140351;-60
2024/04/14 20:12:20;;;;;;;10.70;3.20;;;;;;;18.81;54.71;98907.34;232398;203;150300;-60
2024/04/14 20:17:23;;;;;;;7.00;2.80;;;;;;;18.81;54.38;98905.20;232574;202;140408;-61
2024/04/14 20:22:26;;;;;;;12.60;2.90;;;;;;;18.80;53.94;98889.66;232461;203;138007;-61
2024/04/14 20:27:29;;;;;;;5.70;3.00;;;;;;;18.76;53.38;98975.61;232503;206;149629;-60
2024/04/14 20:32:34;;;;;;;8.10;3.10;;;;;;;18.65;55.14;98989.34;232450;206;136522;-60
2024/04/14 20:37:37;;;;;;;9.60;2.90;;;;;;;18.45;56.69;98967.91;232449;203;137803;-60
2024/04/14 20:42:40;;;;;;;9.60;2.80;;;;;;;18.25;57.55;98964.67;232440;203;150624;-61
2024/04/14 20:47:43;;;;;;;12.70;3.20;;;;;;;18.01;58.31;98969.20;232595;206;136905;-61
2024/04/14 20:52:46;;;;;;;8.40;3.40;;;;;;;17.86;58.62;98981.06;232442;203;137439;-60
2024/04/14 20:57:49;;;;;;;7.50;3.00;;;;;;;17.73;59.82;98982.44;232513;206;149694;-60
2024/04/14 21:02:52;;;;;;;12.70;4.70;;;;;;;17.48;60.51;98992.93;232434;203;138474;-59
2024/04/14 21:07:55;;;;;;;9.10;3.70;;;;;;;17.40;60.82;98996.38;232484;206;136553;-59
2024/04/14 21:12:58;;;;;;;7.50;3.60;;;;;;;17.36;61.17;98979.16;232438;206;150001;-60
2024/04/14 21:18:02;;;;;;;8.50;3.10;;;;;;;17.27;61.94;98972.09;232647;206;137216;-59
2024/04/14 21:23:06;;;;;;;6.00;3.10;;;;;;;17.13;63.48;98977.64;232567;203;138278;-59
2024/04/14 21:28:09;;;;;;;6.80;3.70;;;;;;;17.03;64.02;98985.33;232386;206;150187;-60
2024/04/14 21:33:12;;;;;;;9.20;3.30;;;;;;;17.11;63.37;98980.91;232425;203;136603;-61
2024/04/14 21:38:15;;;;;;;7.70;3.60;;;;;;;17.18;64.96;98985.63;232521;206;137285;-60
2024/04/14 21:43:18;;;;;;;6.30;3.90;;;;;;;17.18;63.97;98981.16;232441;206;151036;-60
2024/04/14 21:48:26;;;;;;;7.40;3.70;;;;;;;17.18;63.63;98987.39;232504;199;137284;-59
2024/04/14 21:53:31;;;;;;;7.00;3.80;;;;;;;17.13;63.89;98978.20;232612;206;136444;-61
2024/04/14 21:58:35;;;;;;;11.20;3.70;;;;;;;17.00;64.41;98988.27;232556;203;149697;-61
2024/04/14 22:03:39;;;;;;;7.20;3.60;;;;;;;16.97;64.29;98993.08;232488;206;137139;-61
2024/04/14 22:08:44;;;;;;;9.70;4.00;;;;;;;16.92;65.26;98999.42;232527;206;137033;-62
2024/04/14 22:13:47;;;;;;;9.80;3.60;;;;;;;16.84;65.89;99013.40;232500;203;149550;-61
2024/04/14 22:18:50;;;;;;;6.70;3.30;;;;;;;16.73;65.80;98988.39;232611;202;137341;-62
2024/04/14 22:23:53;;;;;;;5.80;3.20;;;;;;;16.69;65.31;98976.03;232743;202;137144;-62
2024/04/14 22:28:56;;;;;;;5.60;2.40;;;;;;;16.60;65.14;98963.02;232627;206;149726;-61
2024/04/14 22:33:59;;;;;;;7.80;2.40;;;;;;;16.54;63.73;98974.13;232529;206;136971;-62
2024/04/14 22:39:03;;;;;;;6.70;2.60;;;;;;;16.53;63.56;98973.95;232607;206;139772;-62
2024/04/14 22:44:05;;;;;;;5.60;2.40;;;;;;;16.53;63.95;98985.69;232528;202;159184;-61
2024/04/14 22:49:08;;;;;;;6.80;3.00;;;;;;;16.46;64.66;98971.38;232578;202;139942;-62
2024/04/14 22:54:11;;;;;;;7.30;2.40;;;;;;;16.39;64.28;98985.84;232586;203;137393;-63
2024/04/14 22:59:14;;;;;;;5.90;2.60;;;;;;;16.37;63.49;98957.36;232666;203;150090;-63
2024/04/14 23:04:17;;;;;;;7.00;2.70;;;;;;;16.36;63.56;98949.75;232582;203;139471;-63
2024/04/14 23:09:20;;;;;;;6.80;3.10;;;;;;;16.30;63.99;98938.76;232583;206;136675;-63
2024/04/14 23:14:23;;;;;;;7.30;2.90;;;;;;;16.22;64.07;98938.71;232535;202;149664;-61
2024/04/14 23:19:26;;;;;;;5.80;2.80;;;;;;;16.17;63.19;98941.18;232538;203;136558;-62
2024/04/14 23:24:31;;;;;;;5.50;2.60;;;;;;;16.11;63.78;98934.70;232522;204;137992;-62
2024/04/14 23:29:34;;;;;;;6.00;2.70;;;;;;;16.01;64.53;98927.11;232673;203;151056;-62
2024/04/14 23:34:37;;;;;;;7.20;3.30;;;;;;;15.91;64.70;98920.20;232466;206;140200;-63
2024/04/14 23:39:40;;;;;;;9.40;3.00;;;;;;;15.81;65.15;98922.23;232463;206;137569;-62
2024/04/14 23:44:43;;;;;;;4.70;2.60;;;;;;;15.73;65.65;98919.52;232585;206;151864;-62
2024/04/14 23:49:46;;;;;;;5.30;2.50;;;;;;;15.74;65.84;98906.60;232564;206;138308;-62
2024/04/14 23:54:48;;;;;;;10.80;2.60;;;;;;;15.76;66.20;98899.25;232604;206;137886;-63
2024/04/14 23:59:51;;;;;;;6.50;2.40;;;;;;;15.76;65.77;98907.25;232632;206;151467;-62
